sensor_id;sensor_type;location;lat;lon;timestamp;pressure;altitude;pressure_sealevel;temperature;humidity
74893;BME280;63446;56.272;43.922;2022-10-22T00:00:16;101187.81;;;1.93;74.11
74893;BME280;63446;56.272;43.922;2022-10-22T00:02:42;101190.59;;;1.91;74.13
74893;BME280;63446;56.272;43.922;2022-10-22T00:05:09;101187.97;;;1.91;74.25
74893;BME280;63446;56.272;43.922;2022-10-22T00:07:35;101187.19;;;1.91;74.28
74893;BME280;63446;56.272;43.922;2022-10-22T00:10:04;101182.78;;;1.91;74.25
74893;BME280;63446;56.272;43.922;2022-10-22T00:12:30;101179.75;;;1.88;74.32
74893;BME280;63446;56.272;43.922;2022-10-22T00:14:56;101184.16;;;1.87;74.39
74893;BME280;63446;56.272;43.922;2022-10-22T00:17:22;101182.56;;;1.86;74.48
74893;BME280;63446;56.272;43.922;2022-10-22T00:19:47;101177.13;;;1.81;74.40
74893;BME280;63446;56.272;43.922;2022-10-22T00:22:13;101197.38;;;1.86;74.30
74893;BME280;63446;56.272;43.922;2022-10-22T00:24:39;101187.13;;;1.84;74.39
74893;BME280;63446;56.272;43.922;2022-10-22T00:27:08;101200.78;;;1.86;74.52
74893;BME280;63446;56.272;43.922;2022-10-22T00:29:34;101188.75;;;1.85;74.44
74893;BME280;63446;56.272;43.922;2022-10-22T00:31:59;101190.16;;;1.81;74.56
74893;BME280;63446;56.272;43.922;2022-10-22T00:34:25;101194.34;;;1.82;74.44
74893;BME280;63446;56.272;43.922;2022-10-22T00:36:52;101196.16;;;1.82;74.46
74893;BME280;63446;56.272;43.922;2022-10-22T00:39:20;101199.78;;;1.81;74.37
74893;BME280;63446;56.272;43.922;2022-10-22T00:41:49;101199.94;;;1.79;74.40
74893;BME280;63446;56.272;43.922;2022-10-22T00:47:20;101199.34;;;1.77;74.31
74893;BME280;63446;56.272;43.922;2022-10-22T00:49:49;101195.91;;;1.77;74.39
74893;BME280;63446;56.272;43.922;2022-10-22T00:52:16;101181.63;;;1.66;74.46
74893;BME280;63446;56.272;43.922;2022-10-22T00:54:43;101199.88;;;1.73;74.40
74893;BME280;63446;56.272;43.922;2022-10-22T00:57:08;101199.09;;;1.72;74.47
74893;BME280;63446;56.272;43.922;2022-10-22T00:59:36;101187.19;;;1.63;74.31
74893;BME280;63446;56.272;43.922;2022-10-22T01:02:04;101202.06;;;1.69;74.29
74893;BME280;63446;56.272;43.922;2022-10-22T01:04:29;101200.47;;;1.68;74.52
74893;BME280;63446;56.272;43.922;2022-10-22T01:06:55;101212.47;;;1.69;74.53
74893;BME280;63446;56.272;43.922;2022-10-22T01:09:38;101208.09;;;1.69;74.57
74893;BME280;63446;56.272;43.922;2022-10-22T01:12:15;101203.06;;;1.68;74.52
74893;BME280;63446;56.272;43.922;2022-10-22T01:14:58;101204.88;;;1.67;74.50
74893;BME280;63446;56.272;43.922;2022-10-22T01:22:51;101211.66;;;1.62;74.55
74893;BME280;63446;56.272;43.922;2022-10-22T01:25:36;101209.41;;;1.59;74.44
74893;BME280;63446;56.272;43.922;2022-10-22T01:30:48;101224.41;;;1.57;74.56
74893;BME280;63446;56.272;43.922;2022-10-22T01:33:21;101223.63;;;1.56;74.55
74893;BME280;63446;56.272;43.922;2022-10-22T01:35:49;101217.41;;;1.57;74.57
74893;BME280;63446;56.272;43.922;2022-10-22T01:38:19;101224.03;;;1.60;74.54
74893;BME280;63446;56.272;43.922;2022-10-22T01:40:47;101224.03;;;1.60;74.66
74893;BME280;63446;56.272;43.922;2022-10-22T01:43:12;101227.09;;;1.63;74.44
74893;BME280;63446;56.272;43.922;2022-10-22T01:45:42;101229.69;;;1.63;74.61
74893;BME280;63446;56.272;43.922;2022-10-22T01:48:25;101228.69;;;1.64;74.76
74893;BME280;63446;56.272;43.922;2022-10-22T01:54:20;101229.50;;;1.65;74.55
74893;BME280;63446;56.272;43.922;2022-10-22T01:57:04;101232.28;;;1.63;74.41
74893;BME280;63446;56.272;43.922;2022-10-22T02:04:57;101231.66;;;1.61;74.71
74893;BME280;63446;56.272;43.922;2022-10-22T02:07:30;101236.06;;;1.61;74.65
74893;BME280;63446;56.272;43.922;2022-10-22T02:09:59;101235.28;;;1.60;74.61
74893;BME280;63446;56.272;43.922;2022-10-22T02:12:26;101238.06;;;1.59;74.72
74893;BME280;63446;56.272;43.922;2022-10-22T02:14:55;101232.56;;;1.47;74.65
74893;BME280;63446;56.272;43.922;2022-10-22T02:17:24;101247.06;;;1.56;74.66
74893;BME280;63446;56.272;43.922;2022-10-22T02:19:55;101237.00;;;1.53;74.68
74893;BME280;63446;56.272;43.922;2022-10-22T02:22:22;101244.22;;;1.51;74.70
74893;BME280;63446;56.272;43.922;2022-10-22T02:24:49;101250.22;;;1.52;74.82
74893;BME280;63446;56.272;43.922;2022-10-22T02:30:21;101269.47;;;1.51;74.87
74893;BME280;63446;56.272;43.922;2022-10-22T02:33:01;101259.41;;;1.48;74.77
74893;BME280;63446;56.272;43.922;2022-10-22T02:35:30;101264.78;;;1.46;74.80
74893;BME280;63446;56.272;43.922;2022-10-22T02:37:57;101244.03;;;1.31;74.60
74893;BME280;63446;56.272;43.922;2022-10-22T02:40:25;101269.19;;;1.45;74.76
74893;BME280;63446;56.272;43.922;2022-10-22T02:42:52;101266.59;;;1.45;74.83
74893;BME280;63446;56.272;43.922;2022-10-22T02:45:18;101268.41;;;1.45;74.89
74893;BME280;63446;56.272;43.922;2022-10-22T02:47:44;101263.03;;;1.46;74.91
74893;BME280;63446;56.272;43.922;2022-10-22T02:50:10;101270.19;;;1.44;74.69
74893;BME280;63446;56.272;43.922;2022-10-22T02:52:36;101266.00;;;1.43;74.72
74893;BME280;63446;56.272;43.922;2022-10-22T02:55:03;101264.56;;;1.41;74.81
74893;BME280;63446;56.272;43.922;2022-10-22T02:57:29;101272.56;;;1.39;74.81
74893;BME280;63446;56.272;43.922;2022-10-22T02:59:55;101272.94;;;1.36;74.83
74893;BME280;63446;56.272;43.922;2022-10-22T03:02:21;101270.53;;;1.35;74.80
74893;BME280;63446;56.272;43.922;2022-10-22T03:04:47;101260.63;;;1.30;nan
74893;BME280;63446;56.272;43.922;2022-10-22T03:07:13;101270.25;;;1.30;74.78
74893;BME280;63446;56.272;43.922;2022-10-22T03:09:39;101269.44;;;1.29;74.74
74893;BME280;63446;56.272;43.922;2022-10-22T03:12:05;101260.75;;;1.22;74.74
74893;BME280;63446;56.272;43.922;2022-10-22T03:14:30;101268.22;;;1.25;74.79
74893;BME280;63446;56.272;43.922;2022-10-22T03:16:57;101264.00;;;1.24;74.81
74893;BME280;63446;56.272;43.922;2022-10-22T03:19:23;101271.97;;;1.22;74.75
74893;BME280;63446;56.272;43.922;2022-10-22T03:21:52;101276.38;;;1.22;74.79
74893;BME280;63446;56.272;43.922;2022-10-22T03:24:26;101265.34;;;1.20;74.74
74893;BME280;63446;56.272;43.922;2022-10-22T03:26:53;101267.16;;;1.19;74.77
74893;BME280;63446;56.272;43.922;2022-10-22T03:29:21;101273.16;;;1.20;74.81
74893;BME280;63446;56.272;43.922;2022-10-22T03:31:48;101275.94;;;1.18;74.76
74893;BME280;63446;56.272;43.922;2022-10-22T03:34:13;101271.72;;;1.17;74.84
74893;BME280;63446;56.272;43.922;2022-10-22T03:36:40;101258.38;;;1.06;74.83
74893;BME280;63446;56.272;43.922;2022-10-22T03:39:06;101278.75;;;1.17;74.80
74893;BME280;63446;56.272;43.922;2022-10-22T03:41:33;101288.16;;;1.18;74.81
74893;BME280;63446;56.272;43.922;2022-10-22T03:44:00;101278.75;;;1.17;74.85
74893;BME280;63446;56.272;43.922;2022-10-22T03:46:27;101285.75;;;1.16;74.80
74893;BME280;63446;56.272;43.922;2022-10-22T03:48:53;101286.56;;;1.17;74.82
74893;BME280;63446;56.272;43.922;2022-10-22T03:51:19;101292.38;;;1.19;74.86
74893;BME280;63446;56.272;43.922;2022-10-22T03:53:45;101282.16;;;1.17;74.81
74893;BME280;63446;56.272;43.922;2022-10-22T03:56:12;101286.78;;;1.22;74.68
74893;BME280;63446;56.272;43.922;2022-10-22T03:58:40;101290.03;;;1.24;74.65
74893;BME280;63446;56.272;43.922;2022-10-22T04:01:07;101289.47;;;1.29;74.67
74893;BME280;63446;56.272;43.922;2022-10-22T04:03:34;101290.72;;;1.33;74.63
74893;BME280;63446;56.272;43.922;2022-10-22T04:06:06;101300.41;;;1.39;74.51
74893;BME280;63446;56.272;43.922;2022-10-22T04:08:32;101296.25;;;1.44;74.42
74893;BME280;63446;56.272;43.922;2022-10-22T04:10:59;101301.53;;;1.51;74.61
74893;BME280;63446;56.272;43.922;2022-10-22T04:13:25;101286.28;;;1.48;74.42
74893;BME280;63446;56.272;43.922;2022-10-22T04:15:51;101296.66;;;1.91;74.13
74893;BME280;63446;56.272;43.922;2022-10-22T04:18:18;101300.88;;;2.48;73.82
74893;BME280;63446;56.272;43.922;2022-10-22T04:20:44;101304.78;;;3.13;73.45
74893;BME280;63446;56.272;43.922;2022-10-22T04:23:11;101313.56;;;3.87;72.69
74893;BME280;63446;56.272;43.922;2022-10-22T04:25:37;101313.09;;;4.63;71.55
74893;BME280;63446;56.272;43.922;2022-10-22T04:28:05;101316.59;;;5.40;70.58
74893;BME280;63446;56.272;43.922;2022-10-22T04:30:32;101314.66;;;6.17;69.24
74893;BME280;63446;56.272;43.922;2022-10-22T04:32:58;101305.78;;;6.92;67.81
74893;BME280;63446;56.272;43.922;2022-10-22T04:35:24;101295.34;;;7.45;66.32
74893;BME280;63446;56.272;43.922;2022-10-22T04:37:50;101302.31;;;8.17;64.97
74893;BME280;63446;56.272;43.922;2022-10-22T04:40:15;101312.81;;;8.75;63.48
74893;BME280;63446;56.272;43.922;2022-10-22T04:42:41;101306.78;;;9.32;61.74
74893;BME280;63446;56.272;43.922;2022-10-22T04:45:07;101306.72;;;9.44;61.02
74893;BME280;63446;56.272;43.922;2022-10-22T04:47:33;101305.97;;;9.32;60.76
74893;BME280;63446;56.272;43.922;2022-10-22T04:49:59;101313.53;;;9.11;60.74
74893;BME280;63446;56.272;43.922;2022-10-22T04:52:25;101322.06;;;8.90;60.94
74893;BME280;63446;56.272;43.922;2022-10-22T04:54:51;101303.00;;;8.59;61.09
74893;BME280;63446;56.272;43.922;2022-10-22T04:57:16;101321.13;;;8.44;61.45
74893;BME280;63446;56.272;43.922;2022-10-22T04:59:42;101309.44;;;8.16;61.69
74893;BME280;63446;56.272;43.922;2022-10-22T05:02:08;101322.00;;;8.02;61.90
74893;BME280;63446;56.272;43.922;2022-10-22T05:04:34;101326.34;;;7.85;62.23
74893;BME280;63446;56.272;43.922;2022-10-22T05:07:00;101328.16;;;7.73;62.34
74893;BME280;63446;56.272;43.922;2022-10-22T05:09:26;101330.97;;;7.59;62.46
74893;BME280;63446;56.272;43.922;2022-10-22T05:11:52;101339.41;;;7.50;62.49
74893;BME280;63446;56.272;43.922;2022-10-22T05:14:20;101330.44;;;7.39;62.45
74893;BME280;63446;56.272;43.922;2022-10-22T05:16:47;101336.03;;;7.31;62.42
74893;BME280;63446;56.272;43.922;2022-10-22T05:19:17;101331.09;;;7.23;62.49
74893;BME280;63446;56.272;43.922;2022-10-22T05:21:43;101313.28;;;7.06;62.70
74893;BME280;63446;56.272;43.922;2022-10-22T05:24:09;101326.78;;;7.10;62.59
74893;BME280;63446;56.272;43.922;2022-10-22T05:26:35;101335.47;;;7.10;62.50
74893;BME280;63446;56.272;43.922;2022-10-22T05:29:01;101330.44;;;7.09;62.51
74893;BME280;63446;56.272;43.922;2022-10-22T05:31:27;101340.16;;;7.08;62.74
74893;BME280;63446;56.272;43.922;2022-10-22T05:33:54;101339.91;;;7.10;62.85
74893;BME280;63446;56.272;43.922;2022-10-22T05:36:21;101343.94;;;7.13;62.80
74893;BME280;63446;56.272;43.922;2022-10-22T05:38:48;101341.88;;;7.15;62.76
74893;BME280;63446;56.272;43.922;2022-10-22T05:41:17;101346.94;;;7.16;62.82
74893;BME280;63446;56.272;43.922;2022-10-22T05:43:43;101345.91;;;7.17;62.90
74893;BME280;63446;56.272;43.922;2022-10-22T05:46:13;101344.06;;;7.18;63.16
74893;BME280;63446;56.272;43.922;2022-10-22T05:48:40;101341.00;;;7.21;63.44
74893;BME280;63446;56.272;43.922;2022-10-22T05:51:26;101349.25;;;7.24;63.56
74893;BME280;63446;56.272;43.922;2022-10-22T05:53:55;101350.66;;;7.27;63.29
74893;BME280;63446;56.272;43.922;2022-10-22T05:56:22;101342.28;;;7.30;63.16
74893;BME280;63446;56.272;43.922;2022-10-22T05:58:49;101343.69;;;7.32;63.14
74893;BME280;63446;56.272;43.922;2022-10-22T06:01:18;101344.28;;;7.34;63.12
74893;BME280;63446;56.272;43.922;2022-10-22T06:03:45;101346.91;;;7.34;62.96
74893;BME280;63446;56.272;43.922;2022-10-22T06:09:22;101348.56;;;7.29;63.04
74893;BME280;63446;56.272;43.922;2022-10-22T06:11:50;101355.31;;;7.25;63.24
74893;BME280;63446;56.272;43.922;2022-10-22T06:14:16;101346.25;;;7.21;63.46
74893;BME280;63446;56.272;43.922;2022-10-22T06:16:43;101351.75;;;7.19;63.56
74893;BME280;63446;56.272;43.922;2022-10-22T06:19:12;101346.25;;;7.21;63.54
74893;BME280;63446;56.272;43.922;2022-10-22T06:21:38;101351.97;;;7.18;63.45
74893;BME280;63446;56.272;43.922;2022-10-22T06:24:04;101348.88;;;7.21;63.44
74893;BME280;63446;56.272;43.922;2022-10-22T06:26:30;101354.94;;;7.21;63.16
74893;BME280;63446;56.272;43.922;2022-10-22T06:28:56;101355.53;;;7.23;62.92
74893;BME280;63446;56.272;43.922;2022-10-22T06:31:24;101354.28;;;7.26;63.06
74893;BME280;63446;56.272;43.922;2022-10-22T06:33:51;101353.63;;;7.30;62.97
74893;BME280;63446;56.272;43.922;2022-10-22T06:36:20;101352.97;;;7.35;62.87
74893;BME280;63446;56.272;43.922;2022-10-22T06:38:46;101348.06;;;7.39;62.68
74893;BME280;63446;56.272;43.922;2022-10-22T06:41:14;101354.25;;;7.44;62.48
74893;BME280;63446;56.272;43.922;2022-10-22T06:43:42;101357.22;;;7.48;62.43
74893;BME280;63446;56.272;43.922;2022-10-22T06:46:14;101357.94;;;7.55;62.31
74893;BME280;63446;56.272;43.922;2022-10-22T06:48:40;101354.63;;;7.59;62.18
74893;BME280;63446;56.272;43.922;2022-10-22T06:51:11;101358.34;;;7.70;62.07
74893;BME280;63446;56.272;43.922;2022-10-22T06:53:39;101361.44;;;7.79;61.93
74893;BME280;63446;56.272;43.922;2022-10-22T06:56:07;101362.38;;;7.85;62.04
74893;BME280;63446;56.272;43.922;2022-10-22T06:58:34;101366.63;;;7.97;61.84
74893;BME280;63446;56.272;43.922;2022-10-22T07:01:02;101361.03;;;8.05;61.64
74893;BME280;63446;56.272;43.922;2022-10-22T07:03:28;101369.03;;;8.11;61.67
74893;BME280;63446;56.272;43.922;2022-10-22T07:05:58;101371.03;;;8.15;61.70
74893;BME280;63446;56.272;43.922;2022-10-22T07:08:24;101378.00;;;8.21;61.82
74893;BME280;63446;56.272;43.922;2022-10-22T07:10:49;101377.53;;;8.24;61.78
74893;BME280;63446;56.272;43.922;2022-10-22T07:13:15;101367.81;;;8.25;62.25
74893;BME280;63446;56.272;43.922;2022-10-22T07:15:41;101369.88;;;8.35;62.14
74893;BME280;63446;56.272;43.922;2022-10-22T07:18:07;101376.09;;;8.40;62.06
74893;BME280;63446;56.272;43.922;2022-10-22T07:20:33;101376.44;;;8.44;61.93
74893;BME280;63446;56.272;43.922;2022-10-22T07:23:00;101374.94;;;8.48;61.91
74893;BME280;63446;56.272;43.922;2022-10-22T07:25:25;101384.00;;;8.52;61.87
74893;BME280;63446;56.272;43.922;2022-10-22T07:27:52;101369.91;;;8.58;61.75
74893;BME280;63446;56.272;43.922;2022-10-22T07:30:17;101362.47;;;8.55;61.49
74893;BME280;63446;56.272;43.922;2022-10-22T07:32:43;101374.13;;;8.71;61.38
74893;BME280;63446;56.272;43.922;2022-10-22T07:35:09;101376.41;;;8.79;61.25
74893;BME280;63446;56.272;43.922;2022-10-22T07:37:35;101378.59;;;8.82;61.04
74893;BME280;63446;56.272;43.922;2022-10-22T07:40:01;101384.09;;;8.92;60.81
74893;BME280;63446;56.272;43.922;2022-10-22T07:42:28;101379.16;;;8.96;60.82
74893;BME280;63446;56.272;43.922;2022-10-22T07:44:54;101378.44;;;9.00;60.57
74893;BME280;63446;56.272;43.922;2022-10-22T07:47:21;101378.31;;;9.07;60.58
74893;BME280;63446;56.272;43.922;2022-10-22T07:49:46;101378.16;;;9.14;60.63
74893;BME280;63446;56.272;43.922;2022-10-22T07:52:12;101375.94;;;9.22;60.58
74893;BME280;63446;56.272;43.922;2022-10-22T07:54:39;101367.38;;;9.27;60.47
74893;BME280;63446;56.272;43.922;2022-10-22T07:57:05;101380.25;;;9.40;60.09
74893;BME280;63446;56.272;43.922;2022-10-22T07:59:31;101365.81;;;9.43;59.79
74893;BME280;63446;56.272;43.922;2022-10-22T08:01:57;101370.91;;;9.61;59.54
74893;BME280;63446;56.272;43.922;2022-10-22T08:04:22;101374.47;;;9.72;59.41
74893;BME280;63446;56.272;43.922;2022-10-22T08:06:49;101374.91;;;9.81;59.17
74893;BME280;63446;56.272;43.922;2022-10-22T08:09:16;101373.00;;;9.93;58.98
74893;BME280;63446;56.272;43.922;2022-10-22T08:11:42;101370.75;;;10.01;58.56
74893;BME280;63446;56.272;43.922;2022-10-22T08:14:08;101364.53;;;10.08;58.25
74893;BME280;63446;56.272;43.922;2022-10-22T08:16:34;101367.00;;;10.14;57.72
74893;BME280;63446;56.272;43.922;2022-10-22T08:18:59;101362.34;;;10.21;57.22
74893;BME280;63446;56.272;43.922;2022-10-22T08:21:25;101363.25;;;10.44;56.97
74893;BME280;63446;56.272;43.922;2022-10-22T08:23:52;101371.44;;;10.64;56.83
74893;BME280;63446;56.272;43.922;2022-10-22T08:26:17;101362.69;;;10.81;56.44
74893;BME280;63446;56.272;43.922;2022-10-22T08:28:43;101362.06;;;10.95;56.03
74893;BME280;63446;56.272;43.922;2022-10-22T08:31:09;101369.31;;;11.05;55.51
74893;BME280;63446;56.272;43.922;2022-10-22T08:33:35;101363.22;;;11.05;55.19
74893;BME280;63446;56.272;43.922;2022-10-22T08:36:04;101365.81;;;10.99;55.05
74893;BME280;63446;56.272;43.922;2022-10-22T08:38:30;101371.84;;;10.95;55.08
74893;BME280;63446;56.272;43.922;2022-10-22T08:41:07;101371.94;;;10.83;54.90
74893;BME280;63446;56.272;43.922;2022-10-22T08:49:04;101355.00;;;10.40;55.68
74893;BME280;63446;56.272;43.922;2022-10-22T08:51:35;101367.72;;;10.43;55.84
74893;BME280;63446;56.272;43.922;2022-10-22T08:57:09;101368.16;;;10.35;55.46
74893;BME280;63446;56.272;43.922;2022-10-22T08:59:45;101366.28;;;10.19;55.21
74893;BME280;63446;56.272;43.922;2022-10-22T09:07:48;101362.84;;;9.85;55.61
74893;BME280;63446;56.272;43.922;2022-10-22T09:10:21;101352.69;;;9.76;55.38
74893;BME280;63446;56.272;43.922;2022-10-22T09:12:50;101358.31;;;9.68;55.93
74893;BME280;63446;56.272;43.922;2022-10-22T09:15:17;101357.78;;;9.66;55.82
74893;BME280;63446;56.272;43.922;2022-10-22T09:18:05;101354.66;;;9.69;55.51
74893;BME280;63446;56.272;43.922;2022-10-22T09:20:47;101355.78;;;9.73;55.59
74893;BME280;63446;56.272;43.922;2022-10-22T09:23:31;101352.44;;;9.78;55.56
74893;BME280;63446;56.272;43.922;2022-10-22T09:26:00;101361.00;;;9.85;55.47
74893;BME280;63446;56.272;43.922;2022-10-22T09:28:26;101347.06;;;9.90;55.38
74893;BME280;63446;56.272;43.922;2022-10-22T09:30:53;101342.25;;;9.87;55.61
74893;BME280;63446;56.272;43.922;2022-10-22T09:33:25;101351.16;;;9.97;55.45
74893;BME280;63446;56.272;43.922;2022-10-22T09:35:59;101345.06;;;9.97;55.32
74893;BME280;63446;56.272;43.922;2022-10-22T09:38:32;101344.03;;;9.98;55.27
74893;BME280;63446;56.272;43.922;2022-10-22T09:41:00;101347.94;;;9.95;55.36
74893;BME280;63446;56.272;43.922;2022-10-22T09:43:28;101349.78;;;9.95;55.36
74893;BME280;63446;56.272;43.922;2022-10-22T09:45:59;101341.88;;;9.95;55.45
74893;BME280;63446;56.272;43.922;2022-10-22T09:48:32;101344.75;;;9.93;55.74
74893;BME280;63446;56.272;43.922;2022-10-22T09:53:36;101353.88;;;9.86;56.04
74893;BME280;63446;56.272;43.922;2022-10-22T09:56:08;101345.31;;;9.78;55.91
74893;BME280;63446;56.272;43.922;2022-10-22T09:58:45;101348.66;;;9.74;55.78
74893;BME280;63446;56.272;43.922;2022-10-22T10:01:24;101348.34;;;9.70;55.86
74893;BME280;63446;56.272;43.922;2022-10-22T10:03:50;101345.69;;;9.70;56.03
74893;BME280;63446;56.272;43.922;2022-10-22T10:06:19;101343.84;;;9.71;56.08
74893;BME280;63446;56.272;43.922;2022-10-22T10:08:47;101340.81;;;9.79;56.32
74893;BME280;63446;56.272;43.922;2022-10-22T10:11:22;101333.16;;;9.77;56.49
74893;BME280;63446;56.272;43.922;2022-10-22T10:14:15;101344.84;;;9.82;56.47
74893;BME280;63446;56.272;43.922;2022-10-22T10:17:03;101338.44;;;9.77;56.32
74893;BME280;63446;56.272;43.922;2022-10-22T10:19:48;101347.53;;;9.70;56.47
74893;BME280;63446;56.272;43.922;2022-10-22T10:22:32;101341.88;;;9.61;56.65
74893;BME280;63446;56.272;43.922;2022-10-22T10:25:18;101347.75;;;9.51;56.77
74893;BME280;63446;56.272;43.922;2022-10-22T10:27:57;101335.28;;;9.47;56.85
74893;BME280;63446;56.272;43.922;2022-10-22T10:30:26;101338.38;;;9.44;56.98
74893;BME280;63446;56.272;43.922;2022-10-22T10:33:19;101333.25;;;9.37;57.07
74893;BME280;63446;56.272;43.922;2022-10-22T10:36:11;101328.59;;;9.27;57.17
74893;BME280;63446;56.272;43.922;2022-10-22T10:38:49;101325.75;;;9.17;57.13
74893;BME280;63446;56.272;43.922;2022-10-22T10:44:02;101324.56;;;8.96;57.29
74893;BME280;63446;56.272;43.922;2022-10-22T10:46:54;101316.72;;;8.85;57.51
74893;BME280;63446;56.272;43.922;2022-10-22T10:49:30;101319.13;;;8.74;57.60
74893;BME280;63446;56.272;43.922;2022-10-22T10:55:02;101316.19;;;8.59;57.67
74893;BME280;63446;56.272;43.922;2022-10-22T10:57:48;101320.75;;;8.52;57.73
74893;BME280;63446;56.272;43.922;2022-10-22T11:00:22;101314.94;;;8.50;57.83
74893;BME280;63446;56.272;43.922;2022-10-22T11:03:18;101309.78;;;8.55;57.82
74893;BME280;63446;56.272;43.922;2022-10-22T11:06:09;101313.97;;;8.68;57.57
74893;BME280;63446;56.272;43.922;2022-10-22T11:08:44;101319.81;;;8.82;57.09
74893;BME280;63446;56.272;43.922;2022-10-22T11:11:28;101320.91;;;8.97;57.01
74893;BME280;63446;56.272;43.922;2022-10-22T11:14:19;101323.03;;;9.12;56.73
74893;BME280;63446;56.272;43.922;2022-10-22T11:19:30;101321.56;;;9.33;56.06
74893;BME280;63446;56.272;43.922;2022-10-22T11:22:17;101319.03;;;9.38;55.79
74893;BME280;63446;56.272;43.922;2022-10-22T11:24:55;101311.44;;;9.42;56.07
74893;BME280;63446;56.272;43.922;2022-10-22T11:27:40;101309.03;;;9.40;56.02
74893;BME280;63446;56.272;43.922;2022-10-22T11:30:17;101309.94;;;9.46;55.80
74893;BME280;63446;56.272;43.922;2022-10-22T11:32:53;101318.19;;;9.49;55.56
74893;BME280;63446;56.272;43.922;2022-10-22T11:35:34;101314.16;;;9.47;55.60
74893;BME280;63446;56.272;43.922;2022-10-22T11:38:04;101315.44;;;9.44;55.48
74893;BME280;63446;56.272;43.922;2022-10-22T11:40:35;101315.44;;;9.44;55.33
74893;BME280;63446;56.272;43.922;2022-10-22T11:43:10;101326.22;;;9.43;55.38
74893;BME280;63446;56.272;43.922;2022-10-22T11:45:39;101328.28;;;9.41;55.48
74893;BME280;63446;56.272;43.922;2022-10-22T11:50:44;101312.13;;;9.37;55.80
74893;BME280;63446;56.272;43.922;2022-10-22T12:06:26;101317.84;;;9.17;56.30
74893;BME280;63446;56.272;43.922;2022-10-22T12:14:12;101316.38;;;9.10;56.72
74893;BME280;63446;56.272;43.922;2022-10-22T12:16:43;101320.31;;;9.07;56.51
74893;BME280;63446;56.272;43.922;2022-10-22T12:21:40;101310.69;;;9.01;56.63
74893;BME280;63446;56.272;43.922;2022-10-22T12:24:12;101315.38;;;8.99;56.93
74893;BME280;63446;56.272;43.922;2022-10-22T12:26:39;101310.34;;;8.97;57.21
74893;BME280;63446;56.272;43.922;2022-10-22T12:29:10;101310.59;;;8.96;57.34
74893;BME280;63446;56.272;43.922;2022-10-22T12:31:37;101311.63;;;8.95;57.46
74893;BME280;63446;56.272;43.922;2022-10-22T12:34:04;101313.44;;;8.94;57.66
74893;BME280;63446;56.272;43.922;2022-10-22T12:36:33;101311.06;;;8.93;58.01
74893;BME280;63446;56.272;43.922;2022-10-22T12:39:00;101309.47;;;8.92;58.11
74893;BME280;63446;56.272;43.922;2022-10-22T12:41:31;101302.56;;;8.91;58.03
74893;BME280;63446;56.272;43.922;2022-10-22T12:43:59;101304.66;;;8.89;57.96
74893;BME280;63446;56.272;43.922;2022-10-22T12:46:27;101304.88;;;8.87;57.96
74893;BME280;63446;56.272;43.922;2022-10-22T12:48:59;101308.56;;;8.86;58.12
74893;BME280;63446;56.272;43.922;2022-10-22T12:51:25;101310.38;;;8.86;58.12
74893;BME280;63446;56.272;43.922;2022-10-22T12:53:53;101311.66;;;8.83;58.07
74893;BME280;63446;56.272;43.922;2022-10-22T12:56:23;101297.00;;;8.75;58.26
74893;BME280;63446;56.272;43.922;2022-10-22T12:59:06;101294.59;;;8.74;58.21
74893;BME280;63446;56.272;43.922;2022-10-22T13:01:38;101308.59;;;8.74;58.24
74893;BME280;63446;56.272;43.922;2022-10-22T13:09:39;101298.88;;;8.63;58.43
74893;BME280;63446;56.272;43.922;2022-10-22T13:12:07;101295.91;;;8.60;58.63
74893;BME280;63446;56.272;43.922;2022-10-22T13:14:38;101293.97;;;8.55;58.99
74893;BME280;63446;56.272;43.922;2022-10-22T13:24:51;101291.81;;;8.40;58.73
74893;BME280;63446;56.272;43.922;2022-10-22T13:27:17;101282.72;;;8.36;58.63
74893;BME280;63446;56.272;43.922;2022-10-22T13:29:43;101290.28;;;8.32;58.62
74893;BME280;63446;56.272;43.922;2022-10-22T13:32:26;101285.72;;;8.28;58.68
74893;BME280;63446;56.272;43.922;2022-10-22T13:34:56;101276.44;;;8.25;58.65
74893;BME280;63446;56.272;43.922;2022-10-22T13:37:22;101283.19;;;8.21;59.04
74893;BME280;63446;56.272;43.922;2022-10-22T13:39:48;101277.38;;;8.19;59.44
74893;BME280;63446;56.272;43.922;2022-10-22T13:42:14;101278.63;;;8.17;59.37
74893;BME280;63446;56.272;43.922;2022-10-22T13:44:40;101278.28;;;8.13;59.27
74893;BME280;63446;56.272;43.922;2022-10-22T13:47:25;101282.66;;;8.07;59.25
74893;BME280;63446;56.272;43.922;2022-10-22T13:49:54;101283.91;;;8.05;59.37
74893;BME280;63446;56.272;43.922;2022-10-22T13:52:37;101288.81;;;8.01;59.68
74893;BME280;63446;56.272;43.922;2022-10-22T13:55:15;101276.56;;;7.95;60.12
74893;BME280;63446;56.272;43.922;2022-10-22T13:57:41;101282.75;;;7.89;60.31
74893;BME280;63446;56.272;43.922;2022-10-22T14:00:11;101277.38;;;7.84;60.61
74893;BME280;63446;56.272;43.922;2022-10-22T14:02:38;101272.41;;;7.76;60.78
74893;BME280;63446;56.272;43.922;2022-10-22T14:05:04;101282.47;;;7.67;61.07
74893;BME280;63446;56.272;43.922;2022-10-22T14:07:35;101276.41;;;7.55;61.39
74893;BME280;63446;56.272;43.922;2022-10-22T14:10:03;101259.31;;;7.34;61.55
74893;BME280;63446;56.272;43.922;2022-10-22T14:12:30;101282.53;;;7.37;61.63
74893;BME280;63446;56.272;43.922;2022-10-22T14:14:56;101286.28;;;7.29;61.95
74893;BME280;63446;56.272;43.922;2022-10-22T14:17:22;101282.28;;;7.27;62.13
74893;BME280;63446;56.272;43.922;2022-10-22T14:19:48;101290.03;;;7.22;62.33
74893;BME280;63446;56.272;43.922;2022-10-22T14:22:15;101284.75;;;7.22;62.69
74893;BME280;63446;56.272;43.922;2022-10-22T14:24:42;101283.16;;;7.21;62.59
74893;BME280;63446;56.272;43.922;2022-10-22T14:27:13;101285.00;;;7.20;62.52
74893;BME280;63446;56.272;43.922;2022-10-22T14:29:39;101283.41;;;7.19;62.48